createdAt,value
2019-04-16T00:00:53.271Z,50.98
2019-04-16T00:04:08.037Z,51.19
2019-04-16T00:07:45.657Z,51.34
2019-04-16T00:11:22.536Z,51.85
2019-04-16T00:14:35.210Z,52.04
2019-04-16T00:17:44.358Z,52.34
2019-04-16T00:21:09.877Z,52.51
2019-04-16T00:24:29.213Z,52.63
2019-04-16T00:27:39.080Z,53.04
2019-04-16T00:30:47.647Z,53.23
2019-04-16T00:33:56.368Z,53.53
2019-04-16T00:37:06.489Z,53.50
2019-04-16T00:40:26.574Z,53.47
2019-04-16T00:43:37.111Z,53.66
2019-04-16T00:46:45.750Z,53.72
2019-04-16T00:49:57.706Z,53.80
2019-04-16T00:53:07.796Z,53.80
2019-04-16T00:56:16.159Z,54.09
2019-04-16T00:59:25.563Z,54.31
2019-04-16T01:02:34.301Z,54.64
2019-04-16T01:05:43.022Z,54.83
2019-04-16T01:08:54.907Z,54.90
2019-04-16T01:12:20.712Z,54.85
2019-04-16T01:15:31.885Z,54.83
2019-04-16T01:18:39.663Z,55.02
2019-04-16T01:21:48.283Z,54.87
2019-04-16T01:24:57.150Z,55.16
2019-04-16T01:28:08.997Z,55.12
2019-04-16T01:31:36.300Z,55.21
2019-04-16T01:35:09.527Z,55.31
2019-04-16T01:38:43.405Z,55.21
2019-04-16T01:41:53.273Z,55.67
2019-04-16T01:45:02.201Z,55.84
2019-04-16T01:48:11.009Z,55.80
2019-04-16T01:51:19.723Z,55.88
2019-04-16T01:54:28.297Z,55.79
2019-04-16T01:57:37.067Z,56.14
2019-04-16T02:00:45.754Z,56.08
2019-04-16T02:03:54.745Z,56.33
2019-04-16T02:07:14.798Z,56.09
2019-04-16T02:10:23.404Z,55.81
2019-04-16T02:13:32.112Z,55.81
2019-04-16T02:16:40.729Z,55.87
2019-04-16T02:19:49.784Z,55.70
2019-04-16T02:22:58.439Z,55.97
2019-04-16T02:26:07.008Z,55.99
2019-04-16T02:29:15.627Z,56.07
2019-04-16T02:32:24.397Z,56.09
2019-04-16T02:35:33.043Z,56.39
2019-04-16T02:38:46.351Z,56.21
2019-04-16T02:41:56.774Z,56.19
2019-04-16T02:45:02.391Z,56.23
2019-04-16T02:48:21.308Z,56.24
2019-04-16T02:51:54.807Z,56.27
2019-04-16T02:55:16.696Z,56.44
2019-04-16T02:58:34.334Z,56.40
2019-04-16T03:02:22.679Z,56.43
2019-04-16T03:05:49.269Z,56.66
2019-04-16T03:08:57.942Z,56.78
2019-04-16T03:12:06.528Z,56.80
2019-04-16T03:15:18.343Z,56.80
2019-04-16T03:18:32.855Z,56.93
2019-04-16T03:21:42.968Z,56.86
2019-04-16T03:24:51.617Z,56.93
2019-04-16T03:28:00.152Z,56.92
2019-04-16T03:31:09.836Z,57.09
2019-04-16T03:34:22.087Z,57.14
2019-04-16T03:37:30.234Z,57.00
2019-04-16T03:40:39.795Z,57.06
2019-04-16T03:43:48.549Z,57.06
2019-04-16T03:46:57.362Z,56.89
2019-04-16T03:50:06.424Z,56.95
2019-04-16T03:53:17.467Z,57.20
2019-04-16T03:56:27.493Z,57.42
2019-04-16T03:59:35.819Z,57.42
2019-04-16T04:02:44.607Z,57.53
2019-04-16T04:05:56.674Z,57.83
2019-04-16T04:09:06.705Z,57.97
2019-04-16T04:12:27.774Z,57.75
2019-04-16T04:15:35.939Z,57.89
2019-04-16T04:18:44.603Z,57.79
2019-04-16T04:21:53.728Z,57.95
2019-04-16T04:25:04.381Z,58.16
2019-04-16T04:28:18.451Z,58.16
2019-04-16T04:31:23.900Z,58.12
2019-04-16T04:34:32.634Z,58.36
2019-04-16T04:37:41.376Z,58.30
2019-04-16T04:40:50.835Z,58.27
2019-04-16T04:44:10.506Z,58.38
2019-04-16T04:47:20.133Z,58.33
2019-04-16T04:50:27.541Z,58.75
2019-04-16T04:53:36.215Z,58.81
2019-04-16T04:56:44.819Z,58.69
2019-04-16T04:59:53.468Z,58.65
2019-04-16T05:03:02.251Z,58.77
2019-04-16T05:06:37.537Z,58.80
2019-04-16T05:09:46.237Z,58.30
2019-04-16T05:12:54.935Z,58.46
2019-04-16T05:16:03.592Z,58.48
2019-04-16T05:19:14.817Z,58.43
2019-04-16T05:22:27.082Z,58.40
2019-04-16T05:25:46.119Z,58.24
2019-04-16T05:29:16.519Z,58.10
2019-04-16T05:32:25.649Z,58.05
2019-04-16T05:35:32.752Z,58.02
2019-04-16T05:38:41.608Z,57.86
2019-04-16T05:41:50.536Z,57.52
2019-04-16T05:45:02.493Z,57.21
2019-04-16T05:48:11.179Z,56.57
2019-04-16T05:51:20.307Z,55.90
2019-04-16T05:54:49.262Z,55.12
2019-04-16T05:57:59.279Z,53.30
2019-04-16T06:01:22.646Z,52.09
2019-04-16T06:04:50.055Z,51.60
2019-04-16T06:08:09.049Z,51.34
2019-04-16T06:11:35.559Z,50.99
2019-04-16T06:14:49.700Z,50.88
2019-04-16T06:18:19.253Z,50.75
2019-04-16T06:21:56.402Z,51.34
2019-04-16T06:25:49.592Z,50.79
2019-04-16T06:29:19.871Z,50.59
2019-04-16T06:32:39.800Z,50.50
2019-04-16T06:35:58.881Z,49.09
2019-04-16T06:39:40.845Z,49.00
2019-04-16T06:42:55.131Z,49.92
2019-04-16T06:46:29.940Z,49.80
2019-04-16T06:49:56.484Z,49.69
2019-04-16T06:53:30.856Z,49.60
2019-04-16T06:57:06.202Z,49.62
2019-04-16T07:01:05.812Z,48.69
2019-04-16T07:04:20.658Z,48.19
2019-04-16T07:08:01.657Z,47.17
2019-04-16T07:11:16.049Z,46.41
2019-04-16T07:14:25.887Z,45.58
2019-04-16T07:17:34.583Z,44.48
2019-04-16T07:20:45.742Z,43.97
2019-04-16T07:23:57.012Z,43.87
2019-04-16T07:27:03.812Z,43.53
2019-04-16T07:30:20.674Z,43.15
2019-04-16T07:33:38.497Z,42.24
2019-04-16T07:36:52.954Z,41.74
2019-04-16T07:40:29.570Z,40.21
2019-04-16T07:43:56.475Z,39.43
2019-04-16T07:47:11.138Z,38.85
2019-04-16T07:50:37.278Z,38.60
2019-04-16T07:54:41.164Z,37.44
2019-04-16T07:58:07.786Z,36.66
2019-04-16T08:01:16.598Z,36.49
2019-04-16T08:04:28.962Z,35.93
2019-04-16T08:07:35.612Z,35.18
2019-04-16T08:10:44.228Z,34.19
2019-04-16T08:13:52.962Z,33.75
2019-04-16T08:17:02.716Z,33.67
2019-04-16T08:20:21.601Z,34.18
2019-04-16T08:23:39.637Z,33.26
2019-04-16T08:26:48.194Z,32.99
2019-04-16T08:30:02.450Z,33.25
2019-04-16T08:33:10.351Z,33.75
2019-04-16T08:36:17.619Z,34.54
2019-04-16T08:39:26.252Z,34.09
2019-04-16T08:42:44.314Z,34.45
2019-04-16T08:45:55.316Z,33.73
2019-04-16T08:49:03.960Z,33.94
2019-04-16T08:52:12.556Z,34.18
2019-04-16T08:55:23.576Z,33.39
2019-04-16T08:58:31.482Z,31.95
2019-04-16T09:01:40.123Z,31.96
2019-04-16T09:04:48.816Z,31.22
2019-04-16T09:08:22.075Z,31.64
2019-04-16T09:11:35.046Z,31.50
2019-04-16T09:14:55.897Z,31.94
2019-04-16T09:18:20.819Z,31.80
2019-04-16T09:21:47.742Z,31.69
2019-04-16T09:25:01.377Z,30.88
2019-04-16T09:28:25.416Z,31.00
2019-04-16T09:31:38.540Z,30.86
2019-04-16T09:35:28.585Z,31.17
2019-04-16T09:38:48.730Z,32.25
2019-04-16T09:41:57.424Z,32.95
2019-04-16T09:45:08.260Z,32.22
2019-04-16T09:48:16.814Z,30.53
2019-04-16T09:51:26.339Z,30.74
2019-04-16T09:54:35.116Z,30.05
2019-04-16T09:57:43.736Z,29.42
2019-04-16T10:01:07.438Z,29.38
2019-04-16T10:04:18.229Z,30.16
2019-04-16T10:07:26.748Z,29.49
2019-04-16T10:10:35.363Z,28.72
2019-04-16T10:13:44.046Z,26.78
2019-04-16T10:16:52.709Z,27.42
2019-04-16T10:20:01.466Z,27.19
2019-04-16T10:23:16.123Z,27.08
2019-04-16T10:26:24.679Z,26.48
2019-04-16T10:29:33.272Z,26.41
2019-04-16T10:32:42.112Z,26.28
2019-04-16T10:35:50.763Z,26.60
2019-04-16T10:39:16.665Z,26.21
2019-04-16T10:42:49.524Z,26.45
2019-04-16T10:46:22.820Z,24.91
2019-04-16T10:49:59.699Z,24.98
2019-04-16T10:53:47.933Z,24.55
2019-04-16T10:57:14.284Z,24.21
2019-04-16T11:00:30.515Z,24.30
2019-04-16T11:04:07.829Z,23.56
2019-04-16T11:07:35.473Z,23.50
2019-04-16T11:10:58.599Z,22.67
2019-04-16T11:14:07.295Z,22.63
2019-04-16T11:17:17.562Z,23.11
2019-04-16T11:20:26.792Z,22.90
2019-04-16T11:23:45.824Z,22.69
2019-04-16T11:26:54.458Z,21.92
2019-04-16T11:30:03.845Z,20.55
2019-04-16T11:33:33.570Z,21.04
2019-04-16T11:36:42.199Z,20.22
2019-04-16T11:39:50.909Z,20.93
2019-04-16T11:42:59.592Z,21.45
2019-04-16T11:46:08.135Z,21.02
2019-04-16T11:49:16.801Z,20.73
2019-04-16T11:52:25.562Z,20.39
2019-04-16T11:55:34.215Z,20.10
2019-04-16T11:58:47.684Z,20.82
2019-04-16T12:02:24.287Z,20.36
2019-04-16T12:05:47.199Z,20.36
2019-04-16T12:09:14.921Z,19.30
2019-04-16T12:12:31.890Z,20.07
2019-04-16T12:16:14.619Z,19.77
2019-04-16T12:19:44.778Z,19.26
2019-04-16T12:23:04.870Z,19.90
2019-04-16T12:26:31.210Z,19.64
2019-04-16T12:29:50.415Z,20.57
2019-04-16T12:33:16.749Z,20.85
2019-04-16T12:36:53.749Z,20.01
2019-04-16T12:40:27.479Z,19.63
2019-04-16T12:43:38.443Z,20.08
2019-04-16T12:47:04.473Z,19.97
2019-04-16T12:50:32.071Z,20.89
2019-04-16T12:54:05.675Z,20.64
2019-04-16T12:57:30.214Z,20.34
2019-04-16T13:00:46.529Z,20.19
2019-04-16T13:04:00.217Z,19.51
2019-04-16T13:07:14.876Z,19.15
2019-04-16T13:11:08.847Z,19.28
2019-04-16T13:14:37.788Z,19.20
2019-04-16T13:18:03.688Z,20.02
2019-04-16T13:21:23.894Z,19.90
2019-04-16T13:24:42.016Z,20.08
2019-04-16T13:27:51.707Z,20.66
2019-04-16T13:31:11.868Z,21.27
2019-04-16T13:34:20.542Z,21.08
2019-04-16T13:37:33.672Z,21.24
2019-04-16T13:40:41.483Z,21.41
2019-04-16T13:43:54.932Z,21.87
2019-04-16T13:47:04.003Z,22.61
2019-04-16T13:50:29.787Z,22.72
2019-04-16T13:54:01.811Z,23.26
2019-04-16T13:57:14.314Z,23.42
2019-04-16T14:00:29.232Z,23.87
2019-04-16T14:03:37.886Z,23.42
2019-04-16T14:06:46.490Z,23.37
2019-04-16T14:09:55.002Z,23.57
2019-04-16T14:13:14.348Z,23.24
2019-04-16T14:16:23.209Z,23.03
2019-04-16T14:19:34.794Z,23.43
2019-04-16T14:22:42.304Z,24.02
2019-04-16T14:26:01.045Z,24.19
2019-04-16T14:29:09.625Z,24.07
2019-04-16T14:32:18.404Z,23.95
2019-04-16T14:35:33.654Z,23.88
2019-04-16T14:38:44.490Z,24.26
2019-04-16T14:41:53.096Z,24.39
2019-04-16T14:45:10.712Z,24.19
2019-04-16T14:48:19.275Z,24.26
2019-04-16T14:51:45.106Z,23.91
2019-04-16T14:55:11.103Z,23.70
2019-04-16T14:58:47.365Z,22.46
2019-04-16T15:02:36.134Z,22.51
2019-04-16T15:06:25.983Z,23.19
2019-04-16T15:09:51.863Z,23.62
2019-04-16T15:13:49.342Z,23.62
2019-04-16T15:17:15.156Z,23.01
2019-04-16T15:21:22.014Z,22.62
2019-04-16T15:24:57.997Z,22.96
2019-04-16T15:28:12.448Z,23.09
2019-04-16T15:31:57.439Z,23.70
2019-04-16T15:35:07.722Z,23.72
2019-04-16T15:38:39.136Z,23.88
2019-04-16T15:42:04.948Z,24.10
2019-04-16T15:45:29.963Z,24.12
2019-04-16T15:48:57.535Z,24.34
2019-04-16T15:52:25.085Z,24.47
2019-04-16T15:55:47.010Z,24.70
2019-04-16T15:59:24.101Z,24.72
2019-04-16T16:03:05.265Z,24.88
2019-04-16T16:06:16.949Z,25.04
2019-04-16T16:09:42.640Z,25.18
2019-04-16T16:12:53.605Z,25.01
2019-04-16T16:16:17.668Z,25.22
2019-04-16T16:19:21.043Z,25.27
2019-04-16T16:22:39.831Z,25.01
2019-04-16T16:25:48.569Z,25.23
2019-04-16T16:28:57.149Z,24.85
2019-04-16T16:32:05.710Z,25.12
2019-04-16T16:35:16.749Z,25.40
2019-04-16T16:38:24.676Z,25.24
2019-04-16T16:41:33.439Z,25.26
2019-04-16T16:44:42.059Z,25.62
2019-04-16T16:47:50.754Z,24.90
2019-04-16T16:51:33.390Z,24.58
2019-04-16T16:55:01.847Z,24.71
2019-04-16T16:58:28.721Z,24.70
2019-04-16T17:02:08.804Z,25.14
2019-04-16T17:05:37.963Z,24.91
2019-04-16T17:08:46.510Z,24.89
2019-04-16T17:11:56.468Z,24.72
2019-04-16T17:15:08.627Z,24.70
2019-04-16T17:18:16.048Z,24.98
2019-04-16T17:21:24.658Z,25.16
2019-04-16T17:24:33.176Z,25.30
2019-04-16T17:27:51.214Z,24.83
2019-04-16T17:31:02.177Z,24.70
2019-04-16T17:34:10.874Z,24.95
2019-04-16T17:37:21.308Z,25.19
2019-04-16T17:40:43.640Z,24.98
2019-04-16T17:44:11.286Z,25.45
2019-04-16T17:47:50.529Z,25.03
2019-04-16T17:51:37.168Z,25.23
2019-04-16T17:55:36.854Z,25.71
2019-04-16T17:59:07.553Z,25.73
2019-04-16T18:02:33.730Z,25.69
2019-04-16T18:05:48.092Z,25.79
2019-04-16T18:09:20.968Z,26.02
2019-04-16T18:12:46.657Z,26.01
2019-04-16T18:16:04.237Z,26.45
2019-04-16T18:19:34.687Z,26.56
2019-04-16T18:22:48.036Z,26.58
2019-04-16T18:26:32.240Z,26.69
2019-04-16T18:30:11.876Z,26.79
2019-04-16T18:33:29.404Z,27.22
2019-04-16T18:36:42.515Z,27.13
2019-04-16T18:40:16.821Z,27.07
2019-04-16T18:43:43.141Z,27.12
2019-04-16T18:47:10.939Z,27.34
2019-04-16T18:50:26.095Z,27.73
2019-04-16T18:53:33.343Z,27.63
2019-04-16T18:56:41.879Z,27.70
2019-04-16T18:59:50.421Z,28.06
2019-04-16T19:03:37.034Z,28.36
2019-04-16T19:06:45.688Z,28.64
2019-04-16T19:09:54.288Z,28.92
2019-04-16T19:13:09.602Z,28.92
2019-04-16T19:16:13.089Z,29.18
2019-04-16T19:19:22.220Z,29.48
2019-04-16T19:22:31.433Z,29.51
2019-04-16T19:25:40.368Z,29.68
2019-04-16T19:28:59.853Z,29.83
2019-04-16T19:32:18.932Z,30.10
2019-04-16T19:35:27.518Z,30.15
2019-04-16T19:38:39.458Z,30.37
2019-04-16T19:41:46.336Z,30.11
2019-04-16T19:44:56.886Z,30.31
2019-04-16T19:48:05.756Z,30.68
2019-04-16T19:51:14.516Z,30.62
2019-04-16T19:54:23.686Z,30.83
2019-04-16T19:57:32.295Z,30.35
2019-04-16T20:00:40.798Z,30.39
2019-04-16T20:03:49.597Z,30.36
2019-04-16T20:07:00.875Z,30.62
2019-04-16T20:10:08.804Z,30.74
2019-04-16T20:13:17.545Z,30.67
2019-04-16T20:16:26.033Z,31.08
2019-04-16T20:19:36.574Z,30.98
2019-04-16T20:22:45.155Z,31.20
2019-04-16T20:26:04.244Z,31.48
2019-04-16T20:29:14.158Z,31.44
2019-04-16T20:32:23.412Z,31.56
2019-04-16T20:35:33.332Z,31.27
2019-04-16T20:38:44.137Z,31.38
2019-04-16T20:41:55.270Z,31.61
2019-04-16T20:45:13.789Z,31.62
2019-04-16T20:48:22.324Z,32.01
2019-04-16T20:51:33.546Z,32.52
2019-04-16T20:54:47.141Z,33.22
2019-04-16T20:57:58.663Z,33.58
2019-04-16T21:01:33.799Z,34.11
2019-04-16T21:04:32.713Z,34.63
2019-04-16T21:07:43.898Z,35.40
2019-04-16T21:10:51.567Z,35.86
2019-04-16T21:14:00.100Z,36.21
2019-04-16T21:17:08.598Z,36.66
2019-04-16T21:20:20.246Z,37.10
2019-04-16T21:23:27.693Z,37.70
2019-04-16T21:26:50.984Z,37.76
2019-04-16T21:29:56.934Z,38.04
2019-04-16T21:33:11.211Z,38.02
2019-04-16T21:36:41.374Z,38.32
2019-04-16T21:39:58.073Z,38.31
2019-04-16T21:43:08.221Z,38.37
2019-04-16T21:46:20.185Z,38.55
2019-04-16T21:49:38.365Z,38.43
2019-04-16T21:52:37.449Z,38.54
2019-04-16T21:55:56.129Z,39.12
2019-04-16T21:59:05.794Z,38.97
2019-04-16T22:02:19.786Z,38.85
2019-04-16T22:05:28.318Z,38.69
2019-04-16T22:08:36.892Z,38.85
2019-04-16T22:11:45.574Z,38.85
2019-04-16T22:15:04.579Z,38.80
2019-04-16T22:18:13.140Z,39.04
2019-04-16T22:21:21.742Z,39.12
2019-04-16T22:24:30.339Z,39.27
2019-04-16T22:27:39.689Z,39.25
2019-04-16T22:30:51.461Z,39.58
2019-04-16T22:33:59.363Z,39.30
2019-04-16T22:37:07.990Z,39.69
2019-04-16T22:40:54.971Z,39.81
2019-04-16T22:44:16.423Z,39.43
2019-04-16T22:47:27.600Z,39.67
2019-04-16T22:50:38.187Z,39.74
2019-04-16T22:53:49.522Z,39.74
2019-04-16T22:57:05.554Z,40.11
2019-04-16T23:00:44.167Z,40.07
2019-04-16T23:03:52.927Z,40.02
2019-04-16T23:07:00.550Z,40.06
2019-04-16T23:10:09.397Z,40.38
2019-04-16T23:13:18.180Z,40.41
2019-04-16T23:16:26.842Z,40.62
2019-04-16T23:19:35.471Z,40.24
2019-04-16T23:22:46.527Z,40.36
2019-04-16T23:25:59.039Z,40.41
2019-04-16T23:29:04.765Z,40.72
2019-04-16T23:32:13.585Z,40.43
2019-04-16T23:35:25.025Z,40.36
2019-04-16T23:38:33.903Z,40.67
2019-04-16T23:41:52.850Z,40.41
2019-04-16T23:45:11.043Z,40.50
2019-04-16T23:48:28.474Z,40.75
2019-04-16T23:51:44.756Z,40.72
2019-04-16T23:54:59.691Z,40.55
2019-04-16T23:58:21.896Z,40.81
